Time;durP1;ratioP1;P1;durP2;ratioP2;P2;SDS_P1;SDS_P2;PMS_P1;PMS_P2;Temp;Humidity;BMP_temperature;BMP_pressure;BME280_temperature;BME280_humidity;BME280_pressure;Samples;Min_cycle;Max_cycle;Signal;HPM_P1;HPM_P2
2022/03/08 00:01:42;;;;;;;6.73;3.53;;;;;;;6.43;76.37;98928.53;4937190;29;20201;-89
2022/03/08 00:04:07;;;;;;;3.60;2.97;;;;;;;6.53;76.05;98916.81;4920207;29;20205;-89
2022/03/08 00:06:33;;;;;;;7.57;2.60;;;;;;;6.48;75.93;98910.97;4919998;29;20182;-89
2022/03/08 00:08:58;;;;;;;5.03;2.73;;;;;;;6.47;75.88;98901.44;4936768;29;20248;-89
2022/03/08 00:11:24;;;;;;;3.27;2.10;;;;;;;6.47;75.79;98893.63;4920033;29;20645;-89
2022/03/08 00:13:53;;;;;;;8.13;1.90;;;;;;;6.56;74.49;98889.81;4937181;29;20192;-89
2022/03/08 00:16:19;;;;;;;7.33;3.60;;;;;;;6.56;74.73;98890.66;4919943;29;20546;-90
2022/03/08 00:18:47;;;;;;;7.50;2.03;;;;;;;6.54;75.17;98889.91;4919898;29;20237;-89
2022/03/08 00:21:36;;;;;;;3.13;2.13;;;;;;;6.61;74.44;98891.34;4919748;29;20239;-90
2022/03/08 00:24:04;;;;;;;4.57;2.43;;;;;;;6.61;74.39;98888.72;4937073;29;20579;-90
2022/03/08 00:29:54;;;;;;;;;;;;;;;;;;;;;
2022/03/08 00:32:23;;;;;;;4.70;1.77;;;;;;;6.47;75.28;98882.41;4936941;29;20216;-89
2022/03/08 00:34:52;;;;;;;5.53;2.07;;;;;;;6.15;76.64;98894.06;4920303;29;20177;-90
2022/03/08 00:37:22;;;;;;;4.27;2.10;;;;;;;6.09;77.21;98886.50;4936228;29;20614;-89
2022/03/08 00:39:50;;;;;;;5.03;2.67;;;;;;;6.28;76.88;98890.09;4936535;29;20290;-90
2022/03/08 00:42:25;;;;;;;;;;;;;;;;;;;;;
2022/03/08 00:44:54;;;;;;;4.23;2.20;;;;;;;6.58;76.39;98881.03;4936796;29;20538;-89
2022/03/08 00:47:20;;;;;;;4.90;2.50;;;;;;;6.67;75.70;98885.88;4936189;29;20181;-90
2022/03/08 00:49:48;;;;;;;5.63;3.00;;;;;;;6.74;75.52;98887.31;4919464;29;20196;-89
2022/03/08 00:52:28;;;;;;;5.37;2.80;;;;;;;6.84;74.89;98887.78;4936566;29;20205;-89
2022/03/08 00:54:53;;;;;;;6.63;2.77;;;;;;;6.89;74.41;98874.59;4936611;29;20162;-89
2022/03/08 00:57:19;;;;;;;3.50;2.20;;;;;;;6.94;74.38;98875.22;4936027;29;20188;-90
2022/03/08 00:59:45;;;;;;;5.03;2.03;;;;;;;6.97;74.02;98867.28;4935980;29;20180;-90
2022/03/08 01:02:13;;;;;;;6.60;3.37;;;;;;;7.02;73.39;98875.75;4919265;29;20594;-90
2022/03/08 01:04:38;;;;;;;5.73;2.40;;;;;;;7.06;73.47;98883.38;4936161;29;20212;-90
2022/03/08 01:07:12;;;;;;;6.63;3.23;;;;;;;7.04;72.84;98874.78;4919156;29;20652;-89
2022/03/08 01:09:41;;;;;;;4.47;1.93;;;;;;;7.07;72.80;98873.81;4919155;29;20216;-89
2022/03/08 01:12:07;;;;;;;4.17;2.07;;;;;;;7.03;73.14;98869.63;4935770;29;20198;-90
2022/03/08 01:14:35;;;;;;;4.67;2.20;;;;;;;7.03;72.71;98867.00;4919126;29;20623;-89
2022/03/08 01:17:00;;;;;;;4.10;2.60;;;;;;;7.02;72.91;98865.34;4935802;29;20170;-89
2022/03/08 01:19:29;;;;;;;4.17;1.93;;;;;;;7.02;72.89;98867.94;4936125;29;20185;-89
2022/03/08 01:21:57;;;;;;;5.53;2.23;;;;;;;6.92;73.50;98869.25;4919217;29;20174;-89
2022/03/08 01:24:22;;;;;;;5.13;2.63;;;;;;;6.90;73.00;98860.63;4936260;29;20181;-89
2022/03/08 01:26:48;;;;;;;6.20;3.00;;;;;;;6.90;72.97;98858.88;4918931;29;20189;-89
2022/03/08 01:29:14;;;;;;;6.77;3.33;;;;;;;6.83;72.95;98870.47;4935699;29;20236;-89
2022/03/08 01:31:39;;;;;;;6.07;2.13;;;;;;;6.87;73.29;98877.22;4935610;29;20232;-89
2022/03/08 01:34:05;;;;;;;5.00;2.53;;;;;;;6.82;72.57;98874.81;4918873;29;20185;-89
2022/03/08 01:36:30;;;;;;;6.77;2.77;;;;;;;6.69;73.33;98886.66;4918895;29;20178;-89
2022/03/08 01:38:56;;;;;;;7.93;3.17;;;;;;;6.74;73.18;98883.84;4918838;29;20177;-89
2022/03/08 01:41:22;;;;;;;4.90;2.93;;;;;;;6.78;73.13;98882.84;4920335;29;20549;-89
2022/03/08 01:43:47;;;;;;;5.90;2.50;;;;;;;6.69;73.72;98884.06;4922640;29;20189;-89
2022/03/08 01:46:15;;;;;;;6.23;2.17;;;;;;;6.66;74.15;98881.56;4922619;29;20216;-89
2022/03/08 01:48:41;;;;;;;9.27;3.27;;;;;;;6.67;74.09;98887.63;4939843;29;20186;-89
2022/03/08 01:51:07;;;;;;;3.47;1.70;;;;;;;6.59;73.97;98880.13;4939814;29;20288;-89
2022/03/08 01:53:34;;;;;;;6.40;3.07;;;;;;;6.61;73.69;98882.66;4922521;29;20224;-88
2022/03/08 01:55:59;;;;;;;4.27;2.47;;;;;;;6.59;74.03;98887.09;4922461;29;20663;-88
2022/03/08 01:58:25;;;;;;;6.17;2.63;;;;;;;6.67;74.14;98895.44;4939468;29;20209;-89
2022/03/08 02:00:51;;;;;;;3.93;2.13;;;;;;;6.70;73.79;98900.53;4939147;29;20169;-89
2022/03/08 02:03:16;;;;;;;9.30;2.93;;;;;;;6.59;74.09;98898.38;4922337;29;20260;-89
2022/03/08 02:05:42;;;;;;;7.30;3.90;;;;;;;6.64;73.47;98890.34;4938901;29;20288;-87
2022/03/08 02:08:07;;;;;;;4.67;2.37;;;;;;;6.68;73.31;98895.38;4922536;29;20255;-89
2022/03/08 02:10:33;;;;;;;8.27;3.70;;;;;;;6.59;73.77;98887.94;4938855;29;20174;-89
2022/03/08 02:12:59;;;;;;;5.30;1.87;;;;;;;6.54;73.84;98889.91;4939184;29;20173;-89
2022/03/08 02:15:28;;;;;;;6.20;3.33;;;;;;;6.45;74.24;98882.44;4922085;29;20181;-89
2022/03/08 02:17:56;;;;;;;7.13;3.67;;;;;;;6.33;74.57;98888.16;4938802;29;20186;-89
2022/03/08 02:20:21;;;;;;;4.63;2.30;;;;;;;6.40;74.67;98883.53;4938734;29;20182;-89
2022/03/08 02:22:49;;;;;;;4.27;2.13;;;;;;;6.43;74.62;98881.66;4939025;29;20188;-89
2022/03/08 02:25:15;;;;;;;6.53;2.70;;;;;;;6.33;74.71;98877.72;4938664;29;20174;-89
2022/03/08 02:27:43;;;;;;;5.30;2.70;;;;;;;6.32;75.07;98883.84;4938692;29;20184;-89
2022/03/08 02:30:13;;;;;;;6.63;2.90;;;;;;;6.28;74.72;98865.81;4921748;29;20276;-88
2022/03/08 02:32:39;;;;;;;6.53;2.27;;;;;;;6.29;75.26;98878.75;4921986;29;20206;-88
2022/03/08 02:35:19;;;;;;;6.40;2.80;;;;;;;6.37;75.00;98881.91;4938459;29;20181;-88
2022/03/08 02:37:48;;;;;;;7.53;2.93;;;;;;;6.36;74.85;98885.44;4938758;29;20161;-88
2022/03/08 02:40:16;;;;;;;5.10;2.50;;;;;;;6.35;74.96;98878.50;4938394;29;20625;-88
2022/03/08 02:42:41;;;;;;;5.27;2.20;;;;;;;6.30;75.32;98890.00;4938384;29;20184;-88
2022/03/08 02:45:08;;;;;;;10.47;3.27;;;;;;;6.34;75.01;98887.22;4938662;29;20178;-88
2022/03/08 02:47:34;;;;;;;9.03;3.50;;;;;;;6.45;75.24;98890.25;4938331;29;20174;-88
2022/03/08 02:49:59;;;;;;;5.83;2.63;;;;;;;6.47;75.01;98898.84;4921500;29;20287;-88
2022/03/08 02:52:25;;;;;;;4.80;2.90;;;;;;;6.45;75.02;98892.84;4937143;29;20267;-88
2022/03/08 02:54:51;;;;;;;6.67;2.50;;;;;;;6.43;75.30;98910.28;4921413;29;20209;-88
2022/03/08 02:57:16;;;;;;;7.70;2.80;;;;;;;6.37;75.09;98896.69;4938626;29;20180;-88
2022/03/08 02:59:42;;;;;;;4.93;2.43;;;;;;;6.31;74.89;98907.34;4938338;29;20243;-88
2022/03/08 03:02:08;;;;;;;6.27;2.50;;;;;;;6.26;75.56;98899.72;4938052;29;20635;-88
2022/03/08 03:04:33;;;;;;;4.30;2.50;;;;;;;6.36;75.17;98902.78;4921059;29;20675;-88
2022/03/08 03:06:59;;;;;;;7.00;2.63;;;;;;;6.33;74.93;98903.75;4938475;29;20263;-88
2022/03/08 03:09:25;;;;;;;7.63;3.27;;;;;;;6.36;74.92;98894.97;4921153;29;20184;-88
2022/03/08 03:11:50;;;;;;;8.47;3.90;;;;;;;6.34;75.04;98904.63;4921311;29;20563;-88
2022/03/08 03:14:16;;;;;;;6.23;3.13;;;;;;;6.30;75.09;98906.47;4938358;29;20178;-88
2022/03/08 03:16:41;;;;;;;5.47;2.30;;;;;;;6.12;76.00;98902.84;4937816;29;20220;-88
2022/03/08 03:19:07;;;;;;;7.00;3.23;;;;;;;6.16;76.04;98903.56;4937737;29;20181;-88
2022/03/08 03:21:33;;;;;;;4.40;2.93;;;;;;;6.11;75.83;98908.94;4938005;29;20176;-88
2022/03/08 03:23:58;;;;;;;7.10;3.17;;;;;;;5.97;76.39;98910.38;4921156;29;20238;-88
2022/03/08 03:26:24;;;;;;;14.83;3.03;;;;;;;5.88;76.48;98897.72;4937842;29;20182;-88
2022/03/08 03:28:49;;;;;;;3.67;2.70;;;;;;;5.87;76.64;98899.44;4920797;29;20189;-88
2022/03/08 03:31:16;;;;;;;5.47;2.63;;;;;;;5.91;76.06;98905.41;4937465;29;20758;-88
2022/03/08 03:33:41;;;;;;;5.23;3.77;;;;;;;5.81;77.33;98901.41;4938298;29;20184;-88
2022/03/08 03:36:07;;;;;;;7.53;3.20;;;;;;;5.76;77.46;98911.16;4937632;29;20557;-88
2022/03/08 03:38:33;;;;;;;6.10;3.07;;;;;;;5.54;78.12;98908.47;4937898;29;20239;-88
2022/03/08 03:40:58;;;;;;;6.00;3.50;;;;;;;5.66;78.23;98915.00;4937613;29;20178;-88
2022/03/08 03:43:24;;;;;;;10.20;4.13;;;;;;;5.66;77.39;98917.59;4937249;29;20170;-88
2022/03/08 03:45:49;;;;;;;9.10;4.10;;;;;;;5.52;78.28;98920.69;4937497;29;20183;-88
2022/03/08 03:48:15;;;;;;;6.90;3.17;;;;;;;5.57;78.22;98924.81;4920403;29;20276;-88
2022/03/08 03:50:41;;;;;;;13.87;4.50;;;;;;;5.51;78.76;98925.03;4937044;29;20261;-88
2022/03/08 03:53:07;;;;;;;8.47;3.63;;;;;;;5.49;78.53;98924.25;4937077;29;20172;-87
2022/03/08 03:55:33;;;;;;;6.77;3.37;;;;;;;5.58;78.70;98921.28;4937042;29;20540;-88
2022/03/08 03:57:58;;;;;;;7.90;4.50;;;;;;;5.66;78.08;98922.78;4937008;29;20180;-88
2022/03/08 04:00:24;;;;;;;6.23;3.10;;;;;;;5.61;78.00;98916.91;4937223;29;20191;-88
2022/03/08 04:02:49;;;;;;;8.40;3.83;;;;;;;5.66;78.32;98922.78;4936904;29;20181;-87
2022/03/08 04:05:15;;;;;;;8.50;3.83;;;;;;;5.78;78.16;98928.38;4936382;29;20269;-88
2022/03/08 04:07:41;;;;;;;9.97;3.60;;;;;;;5.85;77.37;98919.47;4937352;29;20179;-88
2022/03/08 04:10:09;;;;;;;8.80;4.13;;;;;;;5.81;77.71;98927.44;4936762;29;20567;-88
2022/03/08 04:12:34;;;;;;;6.93;3.27;;;;;;;5.64;78.28;98932.38;4936889;29;20668;-88
2022/03/08 04:15:00;;;;;;;10.90;4.90;;;;;;;5.74;78.47;98937.19;4919933;29;20185;-88
2022/03/08 04:17:25;;;;;;;6.27;3.30;;;;;;;5.75;77.95;98925.03;4936667;29;20177;-88
2022/03/08 04:19:51;;;;;;;10.40;3.90;;;;;;;5.74;77.61;98920.75;4919888;29;20174;-88
2022/03/08 04:22:16;;;;;;;9.80;3.20;;;;;;;5.86;77.80;98918.59;4936836;29;20171;-88
2022/03/08 04:24:41;;;;;;;8.10;3.10;;;;;;;5.85;77.19;98923.81;4936513;29;20191;-88
2022/03/08 04:27:07;;;;;;;5.53;2.77;;;;;;;5.76;77.87;98922.41;4920070;29;20542;-88
2022/03/08 04:29:33;;;;;;;5.87;3.33;;;;;;;5.80;77.63;98916.16;4936431;29;20188;-88
2022/03/08 04:31:59;;;;;;;10.77;4.33;;;;;;;5.78;77.46;98923.19;4919580;29;20279;-88
2022/03/08 04:34:24;;;;;;;7.77;2.47;;;;;;;5.80;76.90;98923.97;4936663;29;20525;-88
2022/03/08 04:36:50;;;;;;;5.07;2.50;;;;;;;5.66;77.96;98925.38;4936932;29;20187;-88
2022/03/08 04:39:16;;;;;;;3.43;1.63;;;;;;;5.65;77.75;98932.34;4936330;29;20187;-88
2022/03/08 04:41:41;;;;;;;7.03;3.80;;;;;;;5.40;78.26;98931.50;4936294;29;20192;-88
2022/03/08 04:44:07;;;;;;;4.17;2.50;;;;;;;5.45;78.71;98927.00;4936262;29;20187;-87
2022/03/08 04:46:34;;;;;;;8.67;2.77;;;;;;;5.39;79.22;98929.81;4919587;29;20212;-88
2022/03/08 04:49:00;;;;;;;7.40;1.70;;;;;;;5.32;79.12;98929.16;4936408;29;20175;-88
2022/03/08 04:51:25;;;;;;;4.40;2.30;;;;;;;5.25;79.35;98930.28;4936386;29;20205;-88
2022/03/08 04:53:51;;;;;;;5.17;2.77;;;;;;;5.40;79.17;98940.13;4936595;29;20189;-88
2022/03/08 04:56:18;;;;;;;4.23;2.07;;;;;;;5.57;78.77;98939.56;4936310;29;20184;-88
2022/03/08 04:58:44;;;;;;;10.80;3.80;;;;;;;5.59;78.18;98935.16;4936047;29;20183;-89
2022/03/08 05:01:10;;;;;;;5.43;3.10;;;;;;;5.58;77.87;98944.69;4936057;29;20178;-88
2022/03/08 05:03:35;;;;;;;4.77;1.70;;;;;;;5.49;78.38;98950.22;4936278;29;20177;-88
2022/03/08 05:06:01;;;;;;;3.30;1.93;;;;;;;5.41;78.37;98944.44;4936187;29;20279;-88
2022/03/08 05:08:26;;;;;;;4.53;2.03;;;;;;;5.32;78.73;98944.75;4936151;29;20179;-88
2022/03/08 05:10:52;;;;;;;4.07;2.60;;;;;;;5.37;78.93;98942.84;4935829;29;20209;-88
2022/03/08 05:13:18;;;;;;;4.77;2.07;;;;;;;5.51;78.09;98951.00;4936130;29;20625;-88
2022/03/08 05:15:47;;;;;;;6.00;2.20;;;;;;;5.55;78.01;98942.19;4935129;29;20180;-88
2022/03/08 05:18:12;;;;;;;5.23;2.13;;;;;;;5.50;78.02;98956.28;4936050;29;20244;-88
2022/03/08 05:20:38;;;;;;;3.90;1.53;;;;;;;5.55;77.53;98957.78;4935786;29;20573;-88
2022/03/08 05:23:03;;;;;;;2.70;1.80;;;;;;;5.44;78.27;98956.50;4936089;29;20180;-88
2022/03/08 05:25:29;;;;;;;4.33;2.00;;;;;;;5.58;78.08;98960.28;4935984;29;20183;-88
2022/03/08 05:27:54;;;;;;;2.97;1.80;;;;;;;5.49;77.64;98958.03;4935986;29;20713;-88
2022/03/08 05:30:20;;;;;;;5.73;2.47;;;;;;;5.42;77.90;98969.50;4935731;29;20648;-87
2022/03/08 05:32:45;;;;;;;6.67;2.80;;;;;;;5.20;78.66;98965.97;4935610;29;20211;-87
2022/03/08 05:35:11;;;;;;;2.93;1.57;;;;;;;5.38;78.72;98970.53;4919156;29;20177;-87
2022/03/08 05:37:37;;;;;;;5.23;1.83;;;;;;;5.55;77.94;98963.00;4935978;29;20257;-88
2022/03/08 05:40:05;;;;;;;3.87;1.87;;;;;;;5.54;77.88;98969.09;4935573;29;20192;-88
2022/03/08 05:42:30;;;;;;;4.27;1.77;;;;;;;5.47;77.63;98966.78;4918904;29;20187;-87
2022/03/08 05:44:56;;;;;;;8.47;2.73;;;;;;;5.52;77.72;98973.53;4936088;29;20186;-88
2022/03/08 05:47:21;;;;;;;8.80;2.50;;;;;;;5.62;76.90;98967.97;4936119;29;20262;-87
2022/03/08 05:49:47;;;;;;;10.20;2.57;;;;;;;5.55;77.66;98973.38;4935514;29;20631;-87
2022/03/08 05:52:12;;;;;;;6.70;2.77;;;;;;;5.71;77.25;98975.47;4935732;29;20211;-87
2022/03/08 05:54:38;;;;;;;4.40;2.40;;;;;;;5.79;76.87;98976.06;4918780;29;20186;-88
2022/03/08 05:57:04;;;;;;;3.57;1.70;;;;;;;5.76;76.38;98973.56;4935477;29;20211;-88
2022/03/08 05:59:29;;;;;;;4.17;2.07;;;;;;;5.74;76.84;98980.56;4936246;29;20207;-87
2022/03/08 06:01:55;;;;;;;3.40;1.90;;;;;;;5.68;76.91;98979.03;4935434;29;20178;-87
2022/03/08 06:04:20;;;;;;;3.13;1.43;;;;;;;5.76;77.18;98978.75;4935595;29;20261;-88
2022/03/08 06:06:46;;;;;;;7.77;3.50;;;;;;;5.86;76.77;98983.59;4935646;29;20700;-87
2022/03/08 06:09:11;;;;;;;4.30;2.23;;;;;;;5.85;76.74;98978.44;4935395;29;20182;-88
2022/03/08 06:11:37;;;;;;;5.67;3.23;;;;;;;5.78;77.17;98983.00;4935280;29;20212;-87
2022/03/08 06:14:02;;;;;;;7.37;3.80;;;;;;;5.79;76.96;98986.44;4935325;29;20185;-88
2022/03/08 06:16:28;;;;;;;8.60;2.13;;;;;;;5.91;77.01;98992.09;4935379;29;20267;-88
2022/03/08 06:18:56;;;;;;;8.27;3.10;;;;;;;5.87;76.66;98990.47;4935259;29;20639;-88
2022/03/08 06:21:22;;;;;;;5.87;2.27;;;;;;;5.87;76.82;98994.88;4935247;29;20551;-88
2022/03/08 06:23:48;;;;;;;9.40;3.03;;;;;;;5.96;75.93;98994.50;4935490;29;20195;-88
2022/03/08 06:26:13;;;;;;;6.23;1.93;;;;;;;5.94;76.21;98996.34;4935570;29;20264;-88
2022/03/08 06:28:39;;;;;;;11.13;4.43;;;;;;;5.96;77.09;99003.19;4938409;29;20201;-88
2022/03/08 06:31:04;;;;;;;9.73;4.00;;;;;;;6.03;76.09;99007.25;4938638;29;20323;-88
2022/03/08 06:33:30;;;;;;;9.17;3.23;;;;;;;6.07;76.25;99008.00;4938920;29;20192;-88
2022/03/08 06:35:55;;;;;;;8.63;3.90;;;;;;;6.09;75.93;99004.44;4938834;29;20193;-88
2022/03/08 06:38:21;;;;;;;8.80;3.93;;;;;;;6.00;75.31;99014.34;4938519;29;20177;-88
2022/03/08 06:40:46;;;;;;;5.33;3.37;;;;;;;6.03;75.77;99012.44;4921651;29;20570;-88
2022/03/08 06:43:12;;;;;;;12.87;4.30;;;;;;;6.06;75.66;99017.53;4939205;29;20285;-88
2022/03/08 06:45:38;;;;;;;5.97;2.83;;;;;;;6.10;76.19;99015.69;4938372;29;20234;-88
2022/03/08 06:48:04;;;;;;;7.97;2.80;;;;;;;6.16;75.76;99016.28;4921519;29;20190;-88
2022/03/08 06:50:29;;;;;;;6.93;2.33;;;;;;;6.25;75.95;99016.88;4938712;29;20250;-88
2022/03/08 06:52:55;;;;;;;8.47;3.50;;;;;;;6.16;75.90;99016.28;4938502;29;20266;-88
2022/03/08 06:55:21;;;;;;;4.00;2.60;;;;;;;6.15;76.07;99027.63;4938234;29;20628;-88
2022/03/08 06:57:46;;;;;;;4.90;2.47;;;;;;;6.24;75.48;99017.78;4921359;29;20698;-88
2022/03/08 07:00:12;;;;;;;7.57;3.53;;;;;;;6.31;75.15;99009.69;4938602;29;20209;-89
2022/03/08 07:02:38;;;;;;;9.53;3.27;;;;;;;6.33;75.44;99010.47;4938313;29;20187;-88
2022/03/08 07:05:04;;;;;;;7.50;3.93;;;;;;;6.28;76.03;99004.59;4937849;29;20265;-89
2022/03/08 07:07:30;;;;;;;10.33;4.00;;;;;;;6.28;76.21;99007.19;4938068;29;20268;-88
2022/03/08 07:09:56;;;;;;;7.53;3.80;;;;;;;6.30;75.75;99000.19;4921450;29;20294;-88
2022/03/08 07:12:22;;;;;;;11.17;4.43;;;;;;;6.26;76.22;99010.75;4938045;29;20215;-88
2022/03/08 07:14:47;;;;;;;5.83;2.90;;;;;;;6.05;75.91;99012.41;4937873;29;20183;-88
2022/03/08 07:17:13;;;;;;;4.47;2.23;;;;;;;6.07;76.79;99013.19;4937762;29;20193;-88
2022/03/08 07:19:40;;;;;;;9.67;3.97;;;;;;;6.14;75.85;99014.66;4937712;29;20239;-88
2022/03/08 07:22:06;;;;;;;7.80;3.27;;;;;;;6.15;76.18;99008.56;4937710;29;20187;-88
2022/03/08 07:24:31;;;;;;;8.93;3.30;;;;;;;6.29;75.88;99008.06;4920979;29;20192;-88
2022/03/08 07:26:57;;;;;;;6.83;3.27;;;;;;;6.38;76.82;99008.56;4937626;29;20199;-88
2022/03/08 07:29:23;;;;;;;5.10;3.00;;;;;;;6.16;77.25;99005.03;4920837;29;20177;-88
2022/03/08 07:31:48;;;;;;;6.80;2.70;;;;;;;6.15;76.17;99005.97;4920649;29;20205;-88
2022/03/08 07:34:14;;;;;;;5.30;2.10;;;;;;;6.05;76.44;99005.44;4937472;29;20195;-89
2022/03/08 07:36:40;;;;;;;6.23;1.83;;;;;;;6.33;76.38;99000.06;4937984;29;20664;-88
2022/03/08 07:39:06;;;;;;;4.40;2.30;;;;;;;6.41;75.55;98998.03;4937184;29;20184;-88
2022/03/08 07:41:32;;;;;;;3.43;2.20;;;;;;;6.45;75.68;99004.78;4937643;29;20188;-87
2022/03/08 07:43:58;;;;;;;8.00;2.17;;;;;;;6.45;74.82;99010.00;4937526;29;20228;-87
2022/03/08 07:46:24;;;;;;;3.80;2.47;;;;;;;6.48;75.06;99009.91;4937231;29;20589;-88
2022/03/08 07:48:49;;;;;;;4.80;2.60;;;;;;;6.65;74.92;99001.44;4937724;29;20186;-88
2022/03/08 07:51:15;;;;;;;4.00;2.60;;;;;;;6.76;74.32;99001.88;4937087;29;20287;-87
2022/03/08 07:53:41;;;;;;;3.57;1.87;;;;;;;6.74;74.97;99004.53;4937628;29;20619;-88
2022/03/08 07:56:06;;;;;;;4.83;2.43;;;;;;;6.71;74.86;99002.03;4937054;29;20177;-88
2022/03/08 07:58:34;;;;;;;4.33;2.97;;;;;;;6.91;74.96;99009.09;4937031;29;20192;-88
2022/03/08 08:00:59;;;;;;;5.53;2.93;;;;;;;6.97;73.43;98989.75;4920229;29;20632;-88
2022/03/08 08:03:25;;;;;;;6.13;2.33;;;;;;;7.02;73.48;98990.41;4937196;29;20177;-88
2022/03/08 08:05:50;;;;;;;5.23;1.83;;;;;;;7.05;73.19;98993.72;4936756;29;20237;-87
2022/03/08 08:08:16;;;;;;;6.70;3.00;;;;;;;7.01;73.00;98988.69;4920134;29;20189;-87
2022/03/08 08:10:41;;;;;;;3.13;1.93;;;;;;;7.11;74.41;98995.22;4936715;29;20193;-88
2022/03/08 08:13:07;;;;;;;10.17;2.63;;;;;;;6.89;73.99;98990.06;4936766;29;20176;-88
2022/03/08 08:15:36;;;;;;;8.23;2.03;;;;;;;6.64;74.71;98994.53;4937018;29;20695;-89
2022/03/08 08:18:03;;;;;;;5.47;2.67;;;;;;;6.62;75.65;98994.59;4937232;29;20212;-87
2022/03/08 08:20:28;;;;;;;3.00;1.17;;;;;;;6.74;73.20;98986.28;4936680;29;20205;-87
2022/03/08 08:22:54;;;;;;;3.60;2.50;;;;;;;6.67;73.47;98995.25;4936735;29;20280;-87
2022/03/08 08:25:19;;;;;;;7.27;2.27;;;;;;;6.71;74.56;98985.56;4936580;29;20197;-88
2022/03/08 08:27:45;;;;;;;3.10;1.90;;;;;;;6.63;74.16;98991.06;4936801;29;20253;-87
2022/03/08 08:30:11;;;;;;;7.87;2.37;;;;;;;6.59;74.60;98989.50;4936745;29;20181;-88
2022/03/08 08:32:37;;;;;;;4.63;2.37;;;;;;;6.62;75.25;98992.00;4936362;29;20403;-87
2022/03/08 08:35:03;;;;;;;6.77;2.20;;;;;;;6.66;74.72;98985.75;4936419;29;20170;-87
2022/03/08 08:37:29;;;;;;;3.00;1.80;;;;;;;6.84;75.55;98978.94;4919622;29;20540;-87
2022/03/08 08:39:55;;;;;;;4.10;1.77;;;;;;;6.55;74.35;98980.09;4919552;29;20272;-87
2022/03/08 08:42:20;;;;;;;3.50;1.40;;;;;;;6.74;75.04;98980.22;4919524;29;20185;-88
2022/03/08 08:44:46;;;;;;;5.03;2.13;;;;;;;6.54;74.51;98981.03;4936253;29;20177;-87
2022/03/08 08:47:12;;;;;;;3.43;1.37;;;;;;;6.63;74.74;98983.25;4919453;29;20778;-88
2022/03/08 08:49:38;;;;;;;4.87;2.10;;;;;;;6.71;73.42;98980.34;4919397;29;20723;-87
2022/03/08 08:52:04;;;;;;;4.53;1.93;;;;;;;6.87;71.61;98980.59;4936094;29;20236;-87
2022/03/08 08:54:30;;;;;;;3.37;1.63;;;;;;;7.05;71.99;98979.88;4936104;29;20181;-88
2022/03/08 08:56:55;;;;;;;2.83;1.63;;;;;;;7.03;72.21;98972.09;4936074;29;20628;-88
2022/03/08 08:59:21;;;;;;;3.07;1.77;;;;;;;7.18;71.15;98975.84;4936052;29;20178;-87
2022/03/08 09:01:46;;;;;;;2.33;1.53;;;;;;;7.15;70.83;98981.19;4936078;29;20192;-87
2022/03/08 09:04:12;;;;;;;4.80;1.97;;;;;;;7.14;71.41;98975.13;4935759;29;20320;-87
2022/03/08 09:06:37;;;;;;;4.20;1.73;;;;;;;7.00;71.20;98972.22;4936269;29;20186;-87
2022/03/08 09:09:03;;;;;;;5.17;2.43;;;;;;;7.27;70.91;98970.22;4936211;29;20185;-87
2022/03/08 09:11:29;;;;;;;3.73;2.30;;;;;;;7.11;71.27;98969.16;4935825;29;20288;-87
2022/03/08 09:13:56;;;;;;;2.53;1.53;;;;;;;7.20;71.48;98971.41;4919391;29;20324;-87
2022/03/08 09:16:23;;;;;;;4.83;1.80;;;;;;;7.40;70.70;98977.47;4936136;29;20209;-88
2022/03/08 09:18:48;;;;;;;2.43;1.77;;;;;;;7.46;70.92;98971.16;4936088;29;20659;-87
2022/03/08 09:21:14;;;;;;;2.47;1.77;;;;;;;7.52;70.27;98978.69;4935763;29;20223;-87
2022/03/08 09:23:41;;;;;;;4.00;1.67;;;;;;;7.52;69.10;98975.28;4936353;29;20190;-87
2022/03/08 09:26:08;;;;;;;3.10;1.87;;;;;;;7.48;69.62;98973.69;4935809;29;20182;-87
2022/03/08 09:28:33;;;;;;;4.50;2.00;;;;;;;7.68;69.75;98982.34;4935736;29;20256;-87
2022/03/08 09:30:59;;;;;;;4.77;2.13;;;;;;;7.82;69.95;98984.38;4935617;29;20288;-87
2022/03/08 09:33:25;;;;;;;2.93;2.10;;;;;;;7.67;69.55;98980.69;4935680;29;20181;-87
2022/03/08 09:35:51;;;;;;;2.43;1.83;;;;;;;7.68;68.89;98984.97;4935995;29;20260;-87
2022/03/08 09:38:17;;;;;;;3.90;2.30;;;;;;;7.70;68.72;98980.56;4935922;29;20238;-87
2022/03/08 09:40:43;;;;;;;4.70;1.63;;;;;;;7.75;68.66;98983.81;4935624;29;20185;-87
2022/03/08 09:43:08;;;;;;;2.57;1.87;;;;;;;7.72;68.91;98985.69;4918864;29;20196;-87
2022/03/08 09:45:34;;;;;;;4.20;2.33;;;;;;;7.41;69.03;98980.94;4935824;29;20588;-87
2022/03/08 09:48:01;;;;;;;8.23;3.20;;;;;;;7.49;68.93;98975.41;4935834;29;20192;-87
2022/03/08 09:50:28;;;;;;;5.93;3.30;;;;;;;7.65;70.20;98979.88;4918814;29;20662;-87
2022/03/08 09:52:56;;;;;;;5.97;3.17;;;;;;;7.53;70.00;98983.03;4935759;29;20193;-87
2022/03/08 09:55:23;;;;;;;13.00;3.80;;;;;;;7.22;71.46;98987.81;4935832;29;20185;-87
2022/03/08 09:57:49;;;;;;;6.87;3.83;;;;;;;7.19;70.70;98990.56;4935553;29;20186;-87
2022/03/08 10:00:14;;;;;;;6.73;3.53;;;;;;;7.33;71.42;98994.31;4918791;29;20225;-88
2022/03/08 10:02:51;;;;;;;5.50;3.20;;;;;;;7.59;70.91;98984.53;4938201;29;20536;-87
2022/03/08 10:05:25;;;;;;;8.80;3.27;;;;;;;7.46;69.22;98989.41;4939219;29;20229;-87
2022/03/08 10:08:21;;;;;;;17.03;7.67;;;;;;;7.24;70.26;98993.81;4939658;29;20173;-87
2022/03/08 10:11:02;;;;;;;11.30;4.80;;;;;;;7.27;69.39;98996.31;4937299;29;20197;-86
2022/03/08 10:13:35;;;;;;;7.90;3.03;;;;;;;7.27;70.41;98991.94;4939264;29;20178;-87
2022/03/08 10:16:16;;;;;;;12.30;4.93;;;;;;;7.49;69.63;98997.13;4938994;29;20229;-87
2022/03/08 10:18:49;;;;;;;8.57;4.33;;;;;;;7.57;69.49;99005.47;4938890;29;20791;-87
2022/03/08 10:21:26;;;;;;;10.53;4.70;;;;;;;7.79;68.27;99011.44;4938783;29;20185;-88
2022/03/08 10:23:52;;;;;;;10.50;4.27;;;;;;;7.93;68.70;99018.66;4921998;29;20267;-88
2022/03/08 10:26:20;;;;;;;7.30;3.57;;;;;;;7.97;69.05;99015.84;4921935;29;20549;-87
2022/03/08 10:28:47;;;;;;;17.70;5.13;;;;;;;8.13;67.96;99008.19;4938692;29;20185;-87
2022/03/08 10:31:14;;;;;;;8.93;5.23;;;;;;;8.20;67.58;99011.38;4938557;29;20633;-87
2022/03/08 10:33:41;;;;;;;25.37;8.53;;;;;;;8.19;66.76;99005.31;4938647;29;20656;-88
2022/03/08 10:36:21;;;;;;;20.30;8.60;;;;;;;8.10;66.54;99002.28;4938540;29;20186;-87
2022/03/08 10:39:09;;;;;;;24.67;8.30;;;;;;;7.83;65.45;99005.19;4939056;29;20208;-87
2022/03/08 10:41:52;;;;;;;23.60;8.97;;;;;;;8.03;66.06;99004.31;4922528;29;20229;-87
2022/03/08 10:44:41;;;;;;;22.03;7.93;;;;;;;8.26;66.70;99011.09;4938977;29;20225;-87
2022/03/08 10:47:10;;;;;;;26.67;10.00;;;;;;;8.21;63.46;99007.84;4938659;29;20608;-87
2022/03/08 10:49:48;;;;;;;18.20;8.37;;;;;;;8.34;64.63;99004.66;4921503;29;20198;-87
2022/03/08 10:52:14;;;;;;;23.07;11.30;;;;;;;8.43;63.36;98992.94;4921404;29;20197;-87
2022/03/08 10:54:39;;;;;;;24.10;8.60;;;;;;;8.63;63.77;98990.25;4938209;29;20539;-87
2022/03/08 10:57:05;;;;;;;18.60;8.03;;;;;;;8.78;63.21;98996.53;4938179;29;20192;-87
2022/03/08 10:59:31;;;;;;;19.87;8.13;;;;;;;8.65;61.98;98991.00;4921328;29;20178;-87
2022/03/08 11:01:57;;;;;;;15.83;7.37;;;;;;;8.67;63.04;98991.81;4938090;29;20192;-88
2022/03/08 11:04:23;;;;;;;14.67;6.97;;;;;;;8.71;64.24;98988.13;4921084;29;20241;-87
2022/03/08 11:06:52;;;;;;;12.50;6.60;;;;;;;8.75;62.12;98981.84;4938010;29;20174;-88
2022/03/08 11:09:18;;;;;;;19.80;7.73;;;;;;;8.86;64.71;98976.91;4937981;29;20182;-87
2022/03/08 11:11:44;;;;;;;20.97;7.30;;;;;;;8.64;63.49;98977.13;4938383;29;20212;-88
2022/03/08 11:14:11;;;;;;;17.73;7.33;;;;;;;8.47;62.97;98979.66;4920001;29;20610;-87
2022/03/08 11:16:38;;;;;;;16.33;6.67;;;;;;;8.69;63.89;98966.44;4937866;29;20182;-87
2022/03/08 11:19:05;;;;;;;10.83;5.27;;;;;;;8.74;64.23;98967.06;4938335;29;20177;-88
2022/03/08 11:21:34;;;;;;;10.67;5.67;;;;;;;8.83;62.58;98968.41;4937960;29;20172;-88
2022/03/08 11:24:03;;;;;;;15.07;6.17;;;;;;;8.87;63.92;98970.78;4937714;29;20238;-88
2022/03/08 11:26:29;;;;;;;11.07;5.20;;;;;;;8.85;62.95;98971.78;4920836;29;20186;-88
2022/03/08 11:28:56;;;;;;;11.17;4.93;;;;;;;8.90;63.35;98962.81;4920766;29;20190;-88
2022/03/08 11:31:28;;;;;;;11.23;5.30;;;;;;;8.81;62.99;98962.38;4937719;29;20198;-88
2022/03/08 11:34:15;;;;;;;10.33;3.67;;;;;;;8.90;63.21;98968.03;4920806;29;20174;-87
2022/03/08 11:37:03;;;;;;;5.03;2.73;;;;;;;8.95;62.61;98965.19;4937785;29;20613;-87
2022/03/08 11:39:30;;;;;;;4.83;2.43;;;;;;;9.08;63.12;98964.50;4937738;29;20186;-88
2022/03/08 11:42:20;;;;;;;6.47;2.77;;;;;;;8.94;62.33;98964.34;4937381;29;20249;-88
2022/03/08 11:44:58;;;;;;;4.87;2.33;;;;;;;8.90;62.77;98968.03;4920717;29;20576;-88
2022/03/08 11:47:36;;;;;;;3.93;2.03;;;;;;;8.82;62.73;98967.56;4937194;29;20241;-89